Aeroporto :
LOGIN :

Iscrizione | Disclaimer

   EN    FR    IT 

 










Sommario :    VFR   VFR Marginale   IFR   IFR Intensivo   IFR Molto Intensivo
Visibilità : 
Base nubi : 
>= 8 km
>= 3000ft
5 / 8 km
1000 / 3000 ft
1500m / 5 km
500 / 1000 ft
800 / 1500m
200 / 500 ft
< 800m
< 200 ft
Simboli :   Temporali  Nebbia  Neve Forte  Precipitazioni Forti  Vento > 20 kt
SIGMETs :   Varie  Temporali  Ghiacco  Turbolenza  Onda orograficha  Ceneri Vulcaniche







- Altitudine del aeroporto : 83 ft
- Codice IATA : LHR
- Carte del aeroporto


EGLL - London Heathrow

ULTIMO METAR :
  • 260720Z AUTO 21007KT 170V250 9999 FEW014 11/09 Q1009

METARs OBSOLETI :
  • 260650Z AUTO 18007KT 150V230 9999 FEW015 BKN049 10/08 Q1009 NOSIG
  • 260620Z AUTO 17006KT 130V210 9999 NCD 09/07 Q1009
  • 260550Z 15006KT 100V210 CAVOK 08/07 Q1008 TEMPO 7000 SHRA
  • 260520Z AUTO VRB03KT 6000 NCD 07/06 Q1008
  • 260450Z VRB03KT 8000 NSC 07/06 Q1008 NOSIG

TAF TAF EGLL
Valido dal 26 a 06 ore il 27 a 12 ore UTC


260454Z 2606/2712 18007KT 9999 SCT030
PROB30
TEMPO 2606/2609 8000 -SHRA BKN010
PROB40
TEMPO 2609/2615 20015G25KT 6000 SHRA BKN014CB
BECMG 2612/2615 23012KT
PROB30
TEMPO 2615/2622 7000 SHRA
TEMPO 2622/2702 19015G25KT 7000 RA BKN012
TEMPO 2702/2712 23017G27KT 8000 -SHRA
Nessun NOTAM noto per questo aeroporto.



MetMap, La meteo Aeronautica in un colpo d'occhio ! - Copyright ORBIFLY Dicembre 2007 - Disclaimer

ORBIFLY MET'MAP TEAM :

Programmazione e sviluppo : Alexandra Zaïnal
Concezione e sviluppo : Baudouin d'Aumeries
Co-Programmazione e sviluppo : Marc-Olivier Méhu
Supporto tecnico e logistico : Manuel Goepfert
Aiuto per la traduzione : Arnaldo La Scala

Contatto : metmap@orbifly.com




FONTI E CREDITI :

   NOAA